Wetterstation Vordersexau
Wetterdaten: Woche 02.01.12 - 08.01.12 (KW1)
Datum Zeit Temp. A. Feuchte A. Luftdruck Regen Wind Richtung Taupunkt Windchill Windben
02.01.2012 00:00 10,9 C 82 % 1012,0 hPa 0,0 l/m 0,0 km/h NO 7,9 C 10,9 C 0,0 km/h
02.01.2012 01:00 11,3 C 80 % 1011,6 hPa 0,0 l/m 0,6 km/h W-SW 8,0 C 11,3 C 0,4 km/h
02.01.2012 02:00 13,2 C 73 % 1011,2 hPa 0,0 l/m 9,7 km/h W-SW 8,5 C 11,3 C 5,4 km/h
02.01.2012 03:00 13,1 C 73 % 1010,8 hPa 0,0 l/m 22,7 km/h W-SW 8,4 C 6,6 C 12,6 km/h
02.01.2012 04:00 13,1 C 72 % 1010,1 hPa 0,0 l/m 37,6 km/h W-SW 8,2 C 3,8 C 20,9 km/h
02.01.2012 05:00 12,4 C 74 % 1009,6 hPa 0,0 l/m 14,9 km/h W-SW 7,9 C 8,1 C 8,3 km/h
02.01.2012 06:00 12,4 C 74 % 1009,3 hPa 0,0 l/m 26,6 km/h W 7,9 C 4,7 C 14,8 km/h
02.01.2012 07:00 12,2 C 74 % 1008,8 hPa 0,0 l/m 13,6 km/h W 7,7 C 8,4 C 7,6 km/h
02.01.2012 08:00 10,9 C 81 % 1008,9 hPa 0,0 l/m 19,4 km/h W-SW 7,8 C 4,6 C 10,8 km/h
02.01.2012 09:00 10,6 C 84 % 1009,1 hPa 0,4 l/m 20,7 km/h W-SW 8,0 C 3,8 C 11,5 km/h
02.01.2012 10:00 10,4 C 85 % 1009,7 hPa 0,0 l/m 34,3 km/h W 8,0 C 0,4 C 19,1 km/h
02.01.2012 11:00 9,5 C 86 % 1010,3 hPa 0,4 l/m 31,8 km/h W-NW 7,3 C -0,4 C 17,6 km/h
02.01.2012 12:00 7,7 C 86 % 1011,2 hPa 2,5 l/m 3,9 km/h W-NW 5,5 C 7,7 C 2,2 km/h
02.01.2012 13:00 8,8 C 86 % 1012,1 hPa 0,0 l/m 0,0 km/h W 6,6 C 8,8 C 0,0 km/h
02.01.2012 14:00 9,0 C 86 % 1012,5 hPa 0,0 l/m 3,2 km/h W 6,8 C 9,0 C 1,8 km/h
02.01.2012 15:00 8,6 C 85 % 1013,5 hPa 0,0 l/m 10,4 km/h W-SW 6,2 C 5,8 C 5,8 km/h
02.01.2012 16:00 8,2 C 85 % 1014,3 hPa 0,0 l/m 14,3 km/h W-NW 5,8 C 3,3 C 7,9 km/h
02.01.2012 17:00 7,9 C 86 % 1015,6 hPa 0,0 l/m 15,6 km/h W-SW 5,7 C 2,3 C 8,6 km/h
02.01.2012 18:00 7,1 C 85 % 1016,3 hPa 0,0 l/m 16,2 km/h W 4,8 C 1,1 C 9,0 km/h
02.01.2012 19:00 7,0 C 85 % 1017,0 hPa 0,0 l/m 9,7 km/h W 4,7 C 4,5 C 5,4 km/h
02.01.2012 20:00 7,0 C 84 % 1017,9 hPa 0,0 l/m 14,3 km/h N-NW 4,5 C 1,8 C 7,9 km/h
02.01.2012 21:00 6,9 C 84 % 1018,9 hPa 0,0 l/m 0,0 km/h W 4,4 C 6,9 C 0,0 km/h
02.01.2012 22:00 5,4 C 86 % 1019,9 hPa 0,0 l/m 0,0 km/h W-NW 3,3 C 5,4 C 0,0 km/h
02.01.2012 23:00 5,4 C 86 % 1020,4 hPa 0,0 l/m 0,0 km/h W 3,3 C 5,4 C 0,0 km/h
03.01.2012 00:00 5,9 C 86 % 1021,0 hPa 0,0 l/m 9,7 km/h SW 3,7 C 3,3 C 5,4 km/h
03.01.2012 01:00 5,9 C 85 % 1021,6 hPa 0,0 l/m 25,3 km/h W-SW 3,6 C -3,8 C 14,0 km/h
03.01.2012 02:00 5,3 C 86 % 1022,7 hPa 0,0 l/m 16,2 km/h W 3,2 C -1,1 C 9,0 km/h
03.01.2012 03:00 4,9 C 86 % 1023,6 hPa 0,0 l/m 8,4 km/h W 2,8 C 3,2 C 4,7 km/h
03.01.2012 04:00 3,9 C 86 % 1023,9 hPa 0,0 l/m 2,6 km/h SW 1,8 C 3,9 C 1,4 km/h
03.01.2012 05:00 3,4 C 85 % 1024,1 hPa 0,0 l/m 9,7 km/h SW 1,1 C 0,5 C 5,4 km/h
03.01.2012 06:00 3,8 C 84 % 1023,9 hPa 0,0 l/m 13,6 km/h S-SW 1,4 C -1,6 C 7,6 km/h
03.01.2012 07:00 3,2 C 84 % 1024,0 hPa 0,0 l/m 4,5 km/h S 0,8 C 3,2 C 2,5 km/h
03.01.2012 08:00 3,6 C 82 % 1023,4 hPa 0,0 l/m 12,3 km/h SW 0,8 C -1,0 C 6,8 km/h
03.01.2012 09:00 7,1 C 72 % 1023,2 hPa 0,0 l/m 28,5 km/h W-SW 2,4 C -3,1 C 15,8 km/h
03.01.2012 10:00 8,4 C 64 % 1022,6 hPa 0,0 l/m 24,0 km/h W-SW 2,0 C -0,1 C 13,3 km/h
03.01.2012 11:00 9,3 C 57 % 1021,7 hPa 0,0 l/m 33,7 km/h W-NW 1,2 C -1,1 C 18,7 km/h
03.01.2012 12:00 8,9 C 54 % 1020,8 hPa 0,0 l/m 35,6 km/h W 0,1 C -2,0 C 19,8 km/h
03.01.2012 13:00 9,4 C 51 % 1019,4 hPa 0,0 l/m 13,6 km/h W-SW -0,2 C 5,0 C 7,6 km/h
03.01.2012 14:00 9,7 C 52 % 1018,6 hPa 0,0 l/m 35,6 km/h W 0,3 C -0,8 C 19,8 km/h
03.01.2012 15:00 9,4 C 55 % 1018,3 hPa 0,0 l/m 35,0 km/h W-SW 0,8 C -1,2 C 19,4 km/h
03.01.2012 16:00 9,9 C 62 % 1017,5 hPa 0,0 l/m 45,4 km/h W 3,0 C -2,0 C 25,2 km/h
03.01.2012 17:00 10,1 C 65 % 1018,0 hPa 0,0 l/m 34,3 km/h W 3,8 C -0,0 C 19,1 km/h
03.01.2012 18:00 10,3 C 69 % 1017,6 hPa 0,0 l/m 22,7 km/h W-SW 4,9 C 2,9 C 12,6 km/h
03.01.2012 19:00 10,3 C 70 % 1016,4 hPa 0,0 l/m 24,0 km/h W 5,1 C 2,5 C 13,3 km/h
03.01.2012 20:00 11,0 C 67 % 1015,7 hPa 0,0 l/m 54,4 km/h W 5,1 C -1,2 C 30,2 km/h
03.01.2012 21:00 11,1 C 67 % 1015,5 hPa 0,0 l/m 47,3 km/h W-SW 5,2 C -0,4 C 26,3 km/h
03.01.2012 22:00 11,0 C 70 % 1014,9 hPa 0,0 l/m 24,6 km/h W 5,7 C 3,3 C 13,7 km/h
03.01.2012 23:00 11,2 C 73 % 1014,0 hPa 0,0 l/m 32,4 km/h W 6,5 C 1,9 C 18,0 km/h
04.01.2012 00:00 11,1 C 75 % 1013,3 hPa 0,0 l/m 51,2 km/h W-SW 6,8 C -0,7 C 28,4 km/h
04.01.2012 01:00 10,6 C 79 % 1012,3 hPa 0,0 l/m 27,9 km/h W 7,1 C 2,0 C 15,5 km/h
04.01.2012 02:00 10,4 C 80 % 1011,6 hPa 0,0 l/m 49,2 km/h W-NW 7,1 C -1,6 C 27,4 km/h
04.01.2012 03:00 9,6 C 85 % 1011,7 hPa 0,0 l/m 20,1 km/h N-NW 7,2 C 2,7 C 11,2 km/h
04.01.2012 04:00 7,1 C 86 % 1013,2 hPa 3,6 l/m 11,0 km/h S-SW 4,9 C 3,8 C 6,1 km/h
04.01.2012 05:00 5,9 C 86 % 1014,0 hPa 0,4 l/m 4,5 km/h W-SW 3,7 C 5,9 C 2,5 km/h
04.01.2012 06:00 6,4 C 84 % 1014,8 hPa 0,0 l/m 6,5 km/h W 3,9 C 6,3 C 3,6 km/h
04.01.2012 07:00 6,6 C 84 % 1015,9 hPa 0,0 l/m 33,7 km/h W-SW 4,1 C -5,0 C 18,7 km/h
04.01.2012 08:00 6,3 C 86 % 1017,2 hPa 0,0 l/m 23,3 km/h W 4,1 C -2,6 C 13,0 km/h
04.01.2012 09:00 4,9 C 86 % 1019,8 hPa 1,1 l/m 6,5 km/h NW 2,8 C 4,8 C 3,6 km/h
04.01.2012 10:00 5,6 C 84 % 1021,1 hPa 0,4 l/m 19,4 km/h W-NW 3,1 C -2,2 C 10,8 km/h
04.01.2012 11:00 6,8 C 75 % 1021,8 hPa 0,0 l/m 13,0 km/h NW 2,7 C 2,3 C 7,2 km/h
04.01.2012 12:00 7,9 C 68 % 1021,8 hPa 0,0 l/m 22,7 km/h W-NW 2,4 C -0,3 C 12,6 km/h
04.01.2012 13:00 7,0 C 68 % 1022,2 hPa 0,0 l/m 12,3 km/h NW 1,5 C 2,9 C 6,8 km/h
04.01.2012 14:00 7,8 C 67 % 1022,2 hPa 0,0 l/m 1,9 km/h W 2,1 C 7,8 C 1,1 km/h
04.01.2012 15:00 10,6 C 58 % 1022,7 hPa 0,0 l/m 14,3 km/h W 2,7 C 6,2 C 7,9 km/h
04.01.2012 16:00 5,3 C 68 % 1023,2 hPa 0,0 l/m 0,6 km/h W -0,1 C 5,3 C 0,4 km/h
04.01.2012 17:00 4,9 C 75 % 1023,2 hPa 0,0 l/m 12,3 km/h W 0,8 C 0,5 C 6,8 km/h
04.01.2012 18:00 4,6 C 77 % 1023,1 hPa 0,0 l/m 22,0 km/h W-SW 0,9 C -4,5 C 12,2 km/h
04.01.2012 19:00 5,4 C 74 % 1022,9 hPa 0,0 l/m 10,4 km/h W-SW 1,1 C 2,2 C 5,8 km/h
04.01.2012 20:00 5,6 C 73 % 1023,0 hPa 0,0 l/m 22,0 km/h W-SW 1,2 C -3,1 C 12,2 km/h
04.01.2012 21:00 5,8 C 72 % 1021,6 hPa 0,0 l/m 32,4 km/h W 1,2 C -5,8 C 18,0 km/h
04.01.2012 22:00 6,2 C 69 % 1020,6 hPa 0,0 l/m 20,7 km/h W 0,9 C -1,9 C 11,5 km/h
04.01.2012 23:00 5,9 C 70 % 1019,5 hPa 0,0 l/m 26,6 km/h W-NW 0,9 C -4,2 C 14,8 km/h
05.01.2012 00:00 6,1 C 70 % 1017,2 hPa 0,0 l/m 28,5 km/h W 1,0 C -4,4 C 15,8 km/h
05.01.2012 01:00 6,3 C 71 % 1015,2 hPa 0,0 l/m 36,9 km/h SW 1,4 C -6,0 C 20,5 km/h
05.01.2012 02:00 5,8 C 77 % 1013,7 hPa 0,0 l/m 33,7 km/h W-SW 2,1 C -6,1 C 18,7 km/h
05.01.2012 03:00 6,1 C 77 % 1011,9 hPa 0,0 l/m 29,8 km/h SW 2,4 C -4,8 C 16,6 km/h
05.01.2012 04:00 5,6 C 83 % 1010,5 hPa 0,0 l/m 54,4 km/h W-SW 2,9 C -9,5 C 30,2 km/h
05.01.2012 05:00 6,1 C 83 % 1008,8 hPa 0,0 l/m 25,3 km/h W-SW 3,4 C -3,5 C 14,0 km/h
05.01.2012 06:00 6,1 C 83 % 1007,4 hPa 0,0 l/m 28,5 km/h W 3,4 C -4,4 C 15,8 km/h
05.01.2012 07:00 6,2 C 83 % 1006,4 hPa 0,0 l/m 18,8 km/h W-SW 3,5 C -1,2 C 10,4 km/h
05.01.2012 08:00 5,5 C 84 % 1005,3 hPa 0,0 l/m 49,2 km/h W 3,0 C -9,1 C 27,4 km/h
05.01.2012 09:00 5,5 C 84 % 1004,2 hPa 0,0 l/m 33,7 km/h W-NW 3,0 C -6,5 C 18,7 km/h
05.01.2012 10:00 5,2 C 85 % 1002,7 hPa 0,0 l/m 38,2 km/h W-NW 2,9 C -7,9 C 21,2 km/h
05.01.2012 11:00 5,8 C 84 % 1000,8 hPa 0,4 l/m 45,4 km/h W-NW 3,3 C -8,2 C 25,2 km/h
05.01.2012 12:00 6,4 C 84 % 998,5 hPa 0,0 l/m 39,5 km/h W 3,9 C -6,4 C 22,0 km/h
05.01.2012 13:00 7,6 C 84 % 996,9 hPa 0,0 l/m 47,3 km/h W-NW 5,1 C -5,7 C 26,3 km/h
05.01.2012 14:00 8,5 C 85 % 994,6 hPa 0,0 l/m 59,0 km/h NO 6,1 C -5,4 C 32,8 km/h
05.01.2012 15:00 5,2 C 81 % 998,2 hPa 0,7 l/m 3,2 km/h S 2,2 C 5,2 C 1,8 km/h
05.01.2012 16:00 2,1 C 86 % 998,5 hPa 2,1 l/m 14,9 km/h W-SW 0,0 C -4,4 C 8,3 km/h
05.01.2012 17:00 3,8 C 87 % 999,6 hPa 0,4 l/m 3,9 km/h W-NW 1,8 C 3,8 C 2,2 km/h
05.01.2012 18:00 4,1 C 87 % 1001,2 hPa 0,0 l/m 2,6 km/h O-NO 2,1 C 4,1 C 1,4 km/h
05.01.2012 19:00 4,4 C 87 % 1002,3 hPa 0,4 l/m 2,6 km/h NW 2,4 C 4,4 C 1,4 km/h
05.01.2012 20:00 4,3 C 86 % 1002,5 hPa 0,7 l/m 0,0 km/h N 2,2 C 4,3 C 0,0 km/h
05.01.2012 21:00 5,3 C 84 % 1003,5 hPa 0,0 l/m 1,3 km/h W-NW 2,8 C 5,3 C 0,7 km/h
05.01.2012 22:00 5,3 C 82 % 1003,9 hPa 0,0 l/m 38,2 km/h NW 2,5 C -7,8 C 21,2 km/h
05.01.2012 23:00 4,9 C 83 % 1004,6 hPa 0,0 l/m 7,8 km/h O-SO 2,3 C 3,7 C 4,3 km/h
06.01.2012 00:00 3,9 C 86 % 1006,2 hPa 0,4 l/m 0,0 km/h O-SO 1,8 C 3,9 C 0,0 km/h
06.01.2012 01:00 3,7 C 83 % 1007,4 hPa 0,0 l/m 18,8 km/h N-NW 1,1 C -4,3 C 10,4 km/h
06.01.2012 02:00 3,6 C 82 % 1009,7 hPa 0,0 l/m 1,9 km/h NW 0,8 C 3,6 C 1,1 km/h
06.01.2012 03:00 3,6 C 80 % 1010,3 hPa 0,0 l/m 0,0 km/h W-NW 0,5 C 3,6 C 0,0 km/h
06.01.2012 04:00 3,5 C 81 % 1010,8 hPa 0,0 l/m 0,0 km/h N 0,6 C 3,5 C 0,0 km/h
06.01.2012 05:00 3,9 C 78 % 1012,0 hPa 0,0 l/m 0,0 km/h W-NW 0,4 C 3,9 C 0,0 km/h
06.01.2012 06:00 3,5 C 80 % 1013,0 hPa 0,0 l/m 6,5 km/h N-NW 0,4 C 3,4 C 3,6 km/h
06.01.2012 07:00 2,7 C 82 % 1014,3 hPa 0,0 l/m 0,0 km/h NW -0,1 C 2,7 C 0,0 km/h
06.01.2012 08:00 2,4 C 84 % 1015,2 hPa 0,0 l/m 0,0 km/h W-SW -0,0 C 2,4 C 0,0 km/h
06.01.2012 09:00 2,9 C 85 % 1016,5 hPa 0,4 l/m 0,0 km/h NW 0,6 C 2,9 C 0,0 km/h
06.01.2012 10:00 3,6 C 82 % 1017,5 hPa 0,0 l/m 5,2 km/h N-NW 0,8 C 3,6 C 2,9 km/h
06.01.2012 11:00 3,9 C 82 % 1017,8 hPa 0,0 l/m 5,2 km/h N-NW 1,1 C 3,9 C 2,9 km/h
06.01.2012 12:00 4,4 C 80 % 1018,4 hPa 0,0 l/m 3,2 km/h W-NW 1,3 C 4,4 C 1,8 km/h
06.01.2012 13:00 4,5 C 80 % 1018,4 hPa 0,0 l/m 7,1 km/h N-NW 1,4 C 3,9 C 4,0 km/h
06.01.2012 14:00 4,8 C 79 % 1019,1 hPa 0,0 l/m 11,0 km/h N-NO 1,5 C 1,2 C 6,1 km/h
06.01.2012 15:00 4,9 C 80 % 1020,6 hPa 0,0 l/m 0,0 km/h N-NW 1,7 C 4,9 C 0,0 km/h
06.01.2012 16:00 4,8 C 81 % 1021,9 hPa 0,0 l/m 1,9 km/h W-NW 1,8 C 4,8 C 1,1 km/h
06.01.2012 17:00 4,3 C 83 % 1022,7 hPa 0,0 l/m 0,0 km/h S 1,7 C 4,3 C 0,0 km/h
06.01.2012 18:00 4,1 C 83 % 1023,4 hPa 0,0 l/m 0,0 km/h W 1,5 C 4,1 C 0,0 km/h
06.01.2012 19:00 3,9 C 85 % 1024,1 hPa 0,0 l/m 7,8 km/h NW 1,6 C 2,6 C 4,3 km/h
06.01.2012 20:00 3,6 C 86 % 1024,9 hPa 0,4 l/m 0,0 km/h W 1,5 C 3,6 C 0,0 km/h
06.01.2012 21:00 3,4 C 87 % 1025,1 hPa 0,0 l/m 3,9 km/h NW 1,4 C 3,4 C 2,2 km/h
06.01.2012 22:00 3,5 C 87 % 1025,2 hPa 0,0 l/m 9,7 km/h W-NW 1,5 C 0,6 C 5,4 km/h
06.01.2012 23:00 3,0 C 87 % 1025,5 hPa 0,0 l/m 7,1 km/h N-NW 1,1 C 2,3 C 4,0 km/h
07.01.2012 00:00 1,5 C 86 % 1025,5 hPa 0,0 l/m 0,0 km/h N-NW -0,6 C 1,5 C 0,0 km/h
07.01.2012 01:00 2,0 C 87 % 1025,0 hPa 0,0 l/m 0,0 km/h W-NW 0,1 C 2,0 C 0,0 km/h
07.01.2012 02:00 2,9 C 85 % 1025,2 hPa 0,0 l/m 9,1 km/h W-NW 0,6 C 0,5 C 5,0 km/h
07.01.2012 03:00 1,9 C 84 % 1024,5 hPa 0,0 l/m 14,3 km/h W-NW -0,5 C -4,3 C 7,9 km/h
07.01.2012 04:00 1,1 C 85 % 1024,4 hPa 0,0 l/m 0,0 km/h W -1,1 C 1,1 C 0,0 km/h
07.01.2012 05:00 2,1 C 83 % 1023,6 hPa 0,0 l/m 14,9 km/h W -0,5 C -4,4 C 8,3 km/h
07.01.2012 06:00 3,3 C 79 % 1023,6 hPa 0,0 l/m 23,3 km/h W-NW 0,0 C -6,7 C 13,0 km/h
07.01.2012 07:00 3,8 C 76 % 1022,7 hPa 0,0 l/m 7,1 km/h W-SW -0,0 C 3,2 C 4,0 km/h
07.01.2012 08:00 4,1 C 74 % 1022,2 hPa 0,0 l/m 22,0 km/h W-NW -0,1 C -5,1 C 12,2 km/h
07.01.2012 09:00 4,4 C 74 % 1022,3 hPa 0,0 l/m 39,5 km/h W-NW 0,2 C -9,3 C 22,0 km/h
07.01.2012 10:00 4,9 C 73 % 1022,0 hPa 0,0 l/m 42,8 km/h W-NW 0,5 C -9,1 C 23,8 km/h
07.01.2012 11:00 4,9 C 78 % 1021,2 hPa 0,0 l/m 20,7 km/h W-NW 1,4 C -3,6 C 11,5 km/h
07.01.2012 12:00 4,9 C 80 % 1020,2 hPa 0,0 l/m 51,2 km/h W-NW 1,7 C -10,3 C 28,4 km/h
07.01.2012 13:00 4,6 C 84 % 1019,4 hPa 0,0 l/m 39,5 km/h W 2,1 C -9,0 C 22,0 km/h
07.01.2012 14:00 5,5 C 83 % 1018,8 hPa 0,0 l/m 18,1 km/h NW 2,8 C -1,8 C 10,1 km/h
07.01.2012 15:00 5,8 C 83 % 1018,9 hPa 0,0 l/m 25,9 km/h W 3,1 C -4,1 C 14,4 km/h
07.01.2012 16:00 5,9 C 84 % 1018,8 hPa 0,0 l/m 36,3 km/h W-SW 3,4 C -6,5 C 20,2 km/h
07.01.2012 17:00 5,9 C 85 % 1018,6 hPa 0,0 l/m 27,9 km/h W-NW 3,6 C -4,6 C 15,5 km/h
07.01.2012 18:00 6,2 C 85 % 1018,8 hPa 0,0 l/m 21,4 km/h W-NW 3,9 C -2,1 C 11,9 km/h
07.01.2012 19:00 5,8 C 86 % 1019,8 hPa 0,0 l/m 25,9 km/h NW 3,6 C -4,1 C 14,4 km/h
07.01.2012 20:00 5,5 C 86 % 1020,7 hPa 1,1 l/m 0,0 km/h O-NO 3,3 C 5,5 C 0,0 km/h
07.01.2012 21:00 5,1 C 86 % 1021,3 hPa 0,0 l/m 0,0 km/h SO 3,0 C 5,1 C 0,0 km/h
07.01.2012 22:00 4,3 C 86 % 1021,4 hPa 0,0 l/m 0,0 km/h O-SO 2,2 C 4,3 C 0,0 km/h
07.01.2012 23:00 4,4 C 85 % 1021,5 hPa 0,0 l/m 0,0 km/h W 2,1 C 4,4 C 0,0 km/h
08.01.2012 00:00 3,9 C 85 % 1021,4 hPa 0,0 l/m 0,0 km/h W 1,6 C 3,9 C 0,0 km/h
08.01.2012 01:00 4,1 C 86 % 1021,4 hPa 0,0 l/m 0,0 km/h O-NO 2,0 C 4,1 C 0,0 km/h
08.01.2012 02:00 3,9 C 86 % 1021,5 hPa 0,0 l/m 0,0 km/h NW 1,8 C 3,9 C 0,0 km/h
08.01.2012 03:00 4,1 C 85 % 1021,8 hPa 0,0 l/m 0,0 km/h W 1,8 C 4,1 C 0,0 km/h
08.01.2012 04:00 4,2 C 86 % 1021,5 hPa 0,0 l/m 9,1 km/h W-NW 2,1 C 1,9 C 5,0 km/h
08.01.2012 05:00 3,9 C 87 % 1021,1 hPa 0,0 l/m 0,0 km/h W-NW 1,9 C 3,9 C 0,0 km/h
08.01.2012 06:00 4,3 C 87 % 1020,6 hPa 0,0 l/m 9,7 km/h W-NW 2,3 C 1,5 C 5,4 km/h
08.01.2012 07:00 4,6 C 86 % 1020,6 hPa 0,0 l/m 24,0 km/h W-NW 2,5 C -5,2 C 13,3 km/h
08.01.2012 08:00 4,4 C 87 % 1020,9 hPa 0,0 l/m 5,8 km/h W-NW 2,4 C 4,4 C 3,2 km/h
08.01.2012 09:00 4,8 C 87 % 1021,3 hPa 0,4 l/m 16,2 km/h W-NW 2,8 C -1,8 C 9,0 km/h
08.01.2012 10:00 4,5 C 86 % 1022,1 hPa 0,0 l/m 0,6 km/h W 2,4 C 4,5 C 0,4 km/h
08.01.2012 11:00 4,9 C 86 % 1021,5 hPa 0,0 l/m 0,0 km/h W 2,8 C 4,9 C 0,0 km/h
08.01.2012 12:00 5,3 C 86 % 1021,5 hPa 0,0 l/m 7,8 km/h W-NW 3,2 C 4,1 C 4,3 km/h
08.01.2012 13:00 6,0 C 86 % 1021,6 hPa 0,0 l/m 8,4 km/h W-NW 3,8 C 4,3 C 4,7 km/h
08.01.2012 14:00 5,8 C 86 % 1021,5 hPa 0,0 l/m 0,0 km/h W-NW 3,6 C 5,8 C 0,0 km/h
08.01.2012 15:00 6,0 C 86 % 1021,9 hPa 0,0 l/m 0,0 km/h NW 3,8 C 6,0 C 0,0 km/h
08.01.2012 16:00 5,9 C 84 % 1022,5 hPa 0,0 l/m 0,0 km/h N-NW 3,4 C 5,9 C 0,0 km/h
08.01.2012 17:00 5,2 C 85 % 1023,6 hPa 0,4 l/m 0,0 km/h N-NW 2,9 C 5,2 C 0,0 km/h
08.01.2012 18:00 4,5 C 86 % 1024,1 hPa 0,4 l/m 0,0 km/h S 2,4 C 4,5 C 0,0 km/h
08.01.2012 19:00 3,6 C 87 % 1024,1 hPa 1,1 l/m 1,9 km/h O-SO 1,6 C 3,6 C 1,1 km/h
08.01.2012 20:00 3,3 C 86 % 1024,8 hPa 0,0 l/m 0,0 km/h O-SO 1,2 C 3,3 C 0,0 km/h
08.01.2012 21:00 3,5 C 86 % 1025,2 hPa 0,0 l/m 0,0 km/h O-SO 1,4 C 3,5 C 0,0 km/h
08.01.2012 22:00 3,4 C 85 % 1025,6 hPa 0,0 l/m 0,0 km/h O-SO 1,1 C 3,4 C 0,0 km/h
08.01.2012 23:00 3,3 C 85 % 1025,6 hPa 0,0 l/m 0,0 km/h O-NO 1,0 C 3,3 C 0,0 km/h
Min-Datum _ 07.01.12 03.01.12 05.01.12 - 02.01.12 - 07.01.12 07.01.12 02.01.12
_ Min-Zeit 04:30 13:30 14:30 - 00:30 - 04:30 12:30 00:30
Minimum _ 1,1 C 51 % 994,6 hPa - 0,0 km/h - -1,1 C -10,3 C 0,0 km/h
Max-Datum _ 02.01.12 05.01.12 08.01.12 04.01.12 05.01.12 - 02.01.12 02.01.12 05.01.12
_ Max-Zeit 02:30 17:30 22:30 04:30 14:30 - 02:30 01:30 14:30
Maximum _ 13,2 C 87 % 1025,6 hPa 3,6 l/m 59,0 km/h
NO
- 8,5 C 11,3 C 32,8 km/h
NO
Durchschnitt _ 6,0 C 80 % 1016,9 hPa #17,4 l/m 15,7 km/h W 2,8 C 1,2 C 8,7 km/h
www.sexauwetter.de